sensor_id;sensor_type;location;lat;lon;timestamp;P1;durP1;ratioP1;P2;durP2;ratioP2
61840;SDS011;47773;53.174;6.614;2024-01-30T00:01:37;23.55;;;15.88;;
61840;SDS011;47773;53.174;6.614;2024-01-30T00:04:03;25.23;;;16.67;;
61840;SDS011;47773;53.174;6.614;2024-01-30T00:06:29;27.50;;;16.17;;
61840;SDS011;47773;53.174;6.614;2024-01-30T00:08:54;33.25;;;15.85;;
61840;SDS011;47773;53.174;6.614;2024-01-30T00:11:20;22.92;;;15.27;;
61840;SDS011;47773;53.174;6.614;2024-01-30T00:13:46;22.23;;;15.27;;
61840;SDS011;47773;53.174;6.614;2024-01-30T00:16:21;30.00;;;16.27;;
61840;SDS011;47773;53.174;6.614;2024-01-30T00:18:49;26.95;;;16.52;;
61840;SDS011;47773;53.174;6.614;2024-01-30T00:21:15;22.27;;;14.82;;
61840;SDS011;47773;53.174;6.614;2024-01-30T00:23:41;26.83;;;15.80;;
61840;SDS011;47773;53.174;6.614;2024-01-30T00:26:06;23.83;;;15.63;;
61840;SDS011;47773;53.174;6.614;2024-01-30T00:28:32;21.00;;;15.30;;
61840;SDS011;47773;53.174;6.614;2024-01-30T00:30:57;26.02;;;15.65;;
61840;SDS011;47773;53.174;6.614;2024-01-30T00:33:23;27.65;;;16.38;;
61840;SDS011;47773;53.174;6.614;2024-01-30T00:35:48;24.58;;;16.13;;
61840;SDS011;47773;53.174;6.614;2024-01-30T00:38:14;24.27;;;16.85;;
61840;SDS011;47773;53.174;6.614;2024-01-30T00:40:40;28.33;;;16.17;;
61840;SDS011;47773;53.174;6.614;2024-01-30T00:43:06;27.58;;;17.05;;
61840;SDS011;47773;53.174;6.614;2024-01-30T00:45:31;27.63;;;16.67;;
61840;SDS011;47773;53.174;6.614;2024-01-30T00:47:57;31.05;;;16.95;;
61840;SDS011;47773;53.174;6.614;2024-01-30T00:50:22;25.95;;;16.63;;
61840;SDS011;47773;53.174;6.614;2024-01-30T00:52:48;29.65;;;17.63;;
61840;SDS011;47773;53.174;6.614;2024-01-30T00:55:14;24.77;;;16.80;;
61840;SDS011;47773;53.174;6.614;2024-01-30T00:57:39;28.05;;;17.45;;
61840;SDS011;47773;53.174;6.614;2024-01-30T01:00:05;27.23;;;17.13;;
61840;SDS011;47773;53.174;6.614;2024-01-30T01:02:34;30.80;;;18.23;;
61840;SDS011;47773;53.174;6.614;2024-01-30T01:05:04;28.00;;;17.15;;
61840;SDS011;47773;53.174;6.614;2024-01-30T01:07:30;27.98;;;17.02;;
61840;SDS011;47773;53.174;6.614;2024-01-30T01:09:55;26.05;;;17.10;;
61840;SDS011;47773;53.174;6.614;2024-01-30T01:12:21;28.55;;;17.15;;
61840;SDS011;47773;53.174;6.614;2024-01-30T01:14:47;32.75;;;17.67;;
61840;SDS011;47773;53.174;6.614;2024-01-30T01:17:12;29.65;;;17.92;;
61840;SDS011;47773;53.174;6.614;2024-01-30T01:19:38;29.67;;;17.60;;
61840;SDS011;47773;53.174;6.614;2024-01-30T01:22:04;28.77;;;17.23;;
61840;SDS011;47773;53.174;6.614;2024-01-30T01:24:30;28.55;;;17.00;;
61840;SDS011;47773;53.174;6.614;2024-01-30T01:26:57;30.88;;;17.50;;
61840;SDS011;47773;53.174;6.614;2024-01-30T01:29:23;29.92;;;17.20;;
61840;SDS011;47773;53.174;6.614;2024-01-30T01:31:54;33.15;;;17.42;;
61840;SDS011;47773;53.174;6.614;2024-01-30T01:34:21;25.58;;;16.60;;
61840;SDS011;47773;53.174;6.614;2024-01-30T01:36:46;29.70;;;17.65;;
61840;SDS011;47773;53.174;6.614;2024-01-30T01:39:12;28.63;;;17.42;;
61840;SDS011;47773;53.174;6.614;2024-01-30T01:41:38;30.50;;;17.63;;
61840;SDS011;47773;53.174;6.614;2024-01-30T01:44:03;27.10;;;16.90;;
61840;SDS011;47773;53.174;6.614;2024-01-30T01:46:30;26.55;;;17.83;;
61840;SDS011;47773;53.174;6.614;2024-01-30T01:48:58;30.92;;;17.58;;
61840;SDS011;47773;53.174;6.614;2024-01-30T01:51:25;24.13;;;17.25;;
61840;SDS011;47773;53.174;6.614;2024-01-30T01:53:53;26.63;;;16.77;;
61840;SDS011;47773;53.174;6.614;2024-01-30T01:56:21;28.25;;;17.95;;
61840;SDS011;47773;53.174;6.614;2024-01-30T01:58:51;29.50;;;17.48;;
61840;SDS011;47773;53.174;6.614;2024-01-30T02:01:20;25.45;;;17.27;;
61840;SDS011;47773;53.174;6.614;2024-01-30T02:03:46;25.25;;;16.08;;
61840;SDS011;47773;53.174;6.614;2024-01-30T02:06:15;26.17;;;16.73;;
61840;SDS011;47773;53.174;6.614;2024-01-30T02:08:42;25.92;;;16.40;;
61840;SDS011;47773;53.174;6.614;2024-01-30T02:11:08;30.05;;;18.65;;
61840;SDS011;47773;53.174;6.614;2024-01-30T02:13:35;26.88;;;16.58;;
61840;SDS011;47773;53.174;6.614;2024-01-30T02:16:01;26.92;;;16.83;;
61840;SDS011;47773;53.174;6.614;2024-01-30T02:18:27;26.35;;;16.42;;
61840;SDS011;47773;53.174;6.614;2024-01-30T02:20:53;25.33;;;16.55;;
61840;SDS011;47773;53.174;6.614;2024-01-30T02:23:21;26.15;;;16.70;;
61840;SDS011;47773;53.174;6.614;2024-01-30T02:25:50;26.95;;;17.00;;
61840;SDS011;47773;53.174;6.614;2024-01-30T02:28:18;31.90;;;16.58;;
61840;SDS011;47773;53.174;6.614;2024-01-30T02:30:45;25.52;;;16.65;;
61840;SDS011;47773;53.174;6.614;2024-01-30T02:33:11;22.27;;;15.45;;
61840;SDS011;47773;53.174;6.614;2024-01-30T02:35:37;26.42;;;16.75;;
61840;SDS011;47773;53.174;6.614;2024-01-30T02:38:03;29.35;;;16.83;;
61840;SDS011;47773;53.174;6.614;2024-01-30T02:40:29;27.05;;;16.35;;
61840;SDS011;47773;53.174;6.614;2024-01-30T02:42:55;28.77;;;16.98;;
61840;SDS011;47773;53.174;6.614;2024-01-30T02:45:21;27.60;;;15.38;;
61840;SDS011;47773;53.174;6.614;2024-01-30T02:47:47;25.08;;;15.10;;
61840;SDS011;47773;53.174;6.614;2024-01-30T02:50:12;27.00;;;16.25;;
61840;SDS011;47773;53.174;6.614;2024-01-30T02:52:40;24.73;;;15.20;;
61840;SDS011;47773;53.174;6.614;2024-01-30T02:55:05;25.98;;;15.63;;
61840;SDS011;47773;53.174;6.614;2024-01-30T02:57:31;28.40;;;15.63;;
61840;SDS011;47773;53.174;6.614;2024-01-30T02:59:57;29.20;;;16.77;;
61840;SDS011;47773;53.174;6.614;2024-01-30T03:02:23;21.85;;;15.38;;
61840;SDS011;47773;53.174;6.614;2024-01-30T03:04:48;23.98;;;15.45;;
61840;SDS011;47773;53.174;6.614;2024-01-30T03:07:14;25.52;;;15.15;;
61840;SDS011;47773;53.174;6.614;2024-01-30T03:09:41;24.30;;;15.57;;
61840;SDS011;47773;53.174;6.614;2024-01-30T03:12:08;25.83;;;15.25;;
61840;SDS011;47773;53.174;6.614;2024-01-30T03:14:34;23.83;;;15.15;;
61840;SDS011;47773;53.174;6.614;2024-01-30T03:17:00;26.00;;;16.00;;
61840;SDS011;47773;53.174;6.614;2024-01-30T03:19:25;21.80;;;15.07;;
61840;SDS011;47773;53.174;6.614;2024-01-30T03:21:51;24.60;;;16.08;;
61840;SDS011;47773;53.174;6.614;2024-01-30T03:24:17;22.80;;;15.00;;
61840;SDS011;47773;53.174;6.614;2024-01-30T03:26:43;22.17;;;14.80;;
61840;SDS011;47773;53.174;6.614;2024-01-30T03:29:09;26.52;;;15.40;;
61840;SDS011;47773;53.174;6.614;2024-01-30T03:31:35;21.42;;;13.90;;
61840;SDS011;47773;53.174;6.614;2024-01-30T03:34:01;23.35;;;15.15;;
61840;SDS011;47773;53.174;6.614;2024-01-30T03:36:26;24.95;;;15.10;;
61840;SDS011;47773;53.174;6.614;2024-01-30T03:38:52;21.83;;;13.73;;
61840;SDS011;47773;53.174;6.614;2024-01-30T03:41:18;21.35;;;14.55;;
61840;SDS011;47773;53.174;6.614;2024-01-30T03:43:44;22.27;;;14.57;;
61840;SDS011;47773;53.174;6.614;2024-01-30T03:46:11;23.15;;;14.73;;
61840;SDS011;47773;53.174;6.614;2024-01-30T03:48:37;22.52;;;14.98;;
61840;SDS011;47773;53.174;6.614;2024-01-30T03:51:03;22.55;;;13.75;;
61840;SDS011;47773;53.174;6.614;2024-01-30T03:53:29;23.52;;;14.43;;
61840;SDS011;47773;53.174;6.614;2024-01-30T03:55:55;21.08;;;13.73;;
61840;SDS011;47773;53.174;6.614;2024-01-30T03:58:21;22.55;;;14.98;;
61840;SDS011;47773;53.174;6.614;2024-01-30T04:00:46;22.83;;;14.25;;
61840;SDS011;47773;53.174;6.614;2024-01-30T04:03:12;22.65;;;14.65;;
61840;SDS011;47773;53.174;6.614;2024-01-30T04:05:40;26.85;;;14.15;;
61840;SDS011;47773;53.174;6.614;2024-01-30T04:08:06;19.92;;;14.00;;
61840;SDS011;47773;53.174;6.614;2024-01-30T04:10:32;20.13;;;13.77;;
61840;SDS011;47773;53.174;6.614;2024-01-30T04:12:58;19.92;;;13.85;;
61840;SDS011;47773;53.174;6.614;2024-01-30T04:15:25;21.77;;;13.65;;
61840;SDS011;47773;53.174;6.614;2024-01-30T04:17:50;24.10;;;14.40;;
61840;SDS011;47773;53.174;6.614;2024-01-30T04:20:16;20.58;;;13.25;;
61840;SDS011;47773;53.174;6.614;2024-01-30T04:22:45;21.27;;;13.02;;
61840;SDS011;47773;53.174;6.614;2024-01-30T04:25:15;22.48;;;13.82;;
61840;SDS011;47773;53.174;6.614;2024-01-30T04:27:40;21.98;;;13.20;;
61840;SDS011;47773;53.174;6.614;2024-01-30T04:30:06;22.83;;;14.27;;
61840;SDS011;47773;53.174;6.614;2024-01-30T04:32:32;20.15;;;13.30;;
61840;SDS011;47773;53.174;6.614;2024-01-30T04:34:58;18.75;;;12.60;;
61840;SDS011;47773;53.174;6.614;2024-01-30T04:37:24;22.77;;;13.98;;
61840;SDS011;47773;53.174;6.614;2024-01-30T04:39:50;24.13;;;13.65;;
61840;SDS011;47773;53.174;6.614;2024-01-30T04:42:16;23.10;;;13.95;;
61840;SDS011;47773;53.174;6.614;2024-01-30T04:44:42;22.13;;;12.88;;
61840;SDS011;47773;53.174;6.614;2024-01-30T04:47:08;23.65;;;13.60;;
61840;SDS011;47773;53.174;6.614;2024-01-30T04:49:36;21.55;;;13.35;;
61840;SDS011;47773;53.174;6.614;2024-01-30T04:52:01;18.42;;;12.52;;
61840;SDS011;47773;53.174;6.614;2024-01-30T04:54:27;26.13;;;12.80;;
61840;SDS011;47773;53.174;6.614;2024-01-30T04:56:53;19.38;;;13.00;;
61840;SDS011;47773;53.174;6.614;2024-01-30T04:59:18;21.90;;;13.95;;
61840;SDS011;47773;53.174;6.614;2024-01-30T05:01:44;21.15;;;13.27;;
61840;SDS011;47773;53.174;6.614;2024-01-30T05:04:10;21.25;;;12.32;;
61840;SDS011;47773;53.174;6.614;2024-01-30T05:06:36;18.00;;;12.23;;
61840;SDS011;47773;53.174;6.614;2024-01-30T05:09:02;27.10;;;13.07;;
61840;SDS011;47773;53.174;6.614;2024-01-30T05:11:31;21.60;;;12.80;;
61840;SDS011;47773;53.174;6.614;2024-01-30T05:14:01;22.00;;;12.88;;
61840;SDS011;47773;53.174;6.614;2024-01-30T05:16:27;20.25;;;12.50;;
61840;SDS011;47773;53.174;6.614;2024-01-30T05:18:52;19.13;;;11.95;;
61840;SDS011;47773;53.174;6.614;2024-01-30T05:21:18;20.13;;;11.73;;
61840;SDS011;47773;53.174;6.614;2024-01-30T05:23:44;23.00;;;12.07;;
61840;SDS011;47773;53.174;6.614;2024-01-30T05:26:09;18.77;;;12.25;;
61840;SDS011;47773;53.174;6.614;2024-01-30T05:28:35;25.00;;;12.65;;
61840;SDS011;47773;53.174;6.614;2024-01-30T05:31:01;20.05;;;12.38;;
61840;SDS011;47773;53.174;6.614;2024-01-30T05:33:27;21.98;;;12.27;;
61840;SDS011;47773;53.174;6.614;2024-01-30T05:35:53;25.08;;;13.35;;
61840;SDS011;47773;53.174;6.614;2024-01-30T05:38:19;20.92;;;12.45;;
61840;SDS011;47773;53.174;6.614;2024-01-30T05:40:45;18.58;;;13.02;;
61840;SDS011;47773;53.174;6.614;2024-01-30T05:43:11;22.88;;;13.55;;
61840;SDS011;47773;53.174;6.614;2024-01-30T05:45:37;28.50;;;13.27;;
61840;SDS011;47773;53.174;6.614;2024-01-30T05:48:03;26.17;;;12.30;;
61840;SDS011;47773;53.174;6.614;2024-01-30T05:50:29;19.95;;;12.15;;
61840;SDS011;47773;53.174;6.614;2024-01-30T05:52:55;20.65;;;13.88;;
61840;SDS011;47773;53.174;6.614;2024-01-30T05:55:20;20.90;;;12.65;;
61840;SDS011;47773;53.174;6.614;2024-01-30T05:57:46;21.02;;;13.02;;
61840;SDS011;47773;53.174;6.614;2024-01-30T06:00:12;19.27;;;12.40;;
61840;SDS011;47773;53.174;6.614;2024-01-30T06:02:38;18.35;;;12.63;;
61840;SDS011;47773;53.174;6.614;2024-01-30T06:05:03;19.17;;;12.82;;
61840;SDS011;47773;53.174;6.614;2024-01-30T06:07:29;21.20;;;12.90;;
61840;SDS011;47773;53.174;6.614;2024-01-30T06:09:55;23.80;;;13.27;;
61840;SDS011;47773;53.174;6.614;2024-01-30T06:12:21;18.60;;;12.13;;
61840;SDS011;47773;53.174;6.614;2024-01-30T06:14:46;19.30;;;11.40;;
61840;SDS011;47773;53.174;6.614;2024-01-30T06:17:12;20.45;;;12.18;;
61840;SDS011;47773;53.174;6.614;2024-01-30T06:19:38;19.95;;;13.02;;
61840;SDS011;47773;53.174;6.614;2024-01-30T06:22:04;20.20;;;12.05;;
61840;SDS011;47773;53.174;6.614;2024-01-30T06:24:30;20.65;;;11.77;;
61840;SDS011;47773;53.174;6.614;2024-01-30T06:26:56;22.67;;;11.50;;
61840;SDS011;47773;53.174;6.614;2024-01-30T06:29:21;21.23;;;12.25;;
61840;SDS011;47773;53.174;6.614;2024-01-30T06:31:49;17.08;;;11.98;;
61840;SDS011;47773;53.174;6.614;2024-01-30T06:34:15;19.45;;;11.15;;
61840;SDS011;47773;53.174;6.614;2024-01-30T06:36:40;20.60;;;12.07;;
61840;SDS011;47773;53.174;6.614;2024-01-30T06:39:06;19.33;;;12.45;;
61840;SDS011;47773;53.174;6.614;2024-01-30T06:41:32;19.58;;;11.88;;
61840;SDS011;47773;53.174;6.614;2024-01-30T06:43:58;19.55;;;11.82;;
61840;SDS011;47773;53.174;6.614;2024-01-30T06:46:24;21.92;;;11.70;;
61840;SDS011;47773;53.174;6.614;2024-01-30T06:48:49;17.98;;;11.68;;
61840;SDS011;47773;53.174;6.614;2024-01-30T06:51:15;18.52;;;11.27;;
61840;SDS011;47773;53.174;6.614;2024-01-30T06:53:40;22.73;;;11.98;;
61840;SDS011;47773;53.174;6.614;2024-01-30T06:56:06;16.90;;;10.93;;
61840;SDS011;47773;53.174;6.614;2024-01-30T06:58:32;22.65;;;11.70;;
61840;SDS011;47773;53.174;6.614;2024-01-30T07:00:58;21.15;;;12.15;;
61840;SDS011;47773;53.174;6.614;2024-01-30T07:03:24;19.70;;;11.10;;
61840;SDS011;47773;53.174;6.614;2024-01-30T07:05:49;16.70;;;11.43;;
61840;SDS011;47773;53.174;6.614;2024-01-30T07:08:15;17.67;;;11.52;;
61840;SDS011;47773;53.174;6.614;2024-01-30T07:10:44;18.48;;;11.57;;
61840;SDS011;47773;53.174;6.614;2024-01-30T07:13:10;19.63;;;11.80;;
61840;SDS011;47773;53.174;6.614;2024-01-30T07:15:36;18.77;;;12.20;;
61840;SDS011;47773;53.174;6.614;2024-01-30T07:18:02;22.25;;;11.40;;
61840;SDS011;47773;53.174;6.614;2024-01-30T07:20:29;22.58;;;11.73;;
61840;SDS011;47773;53.174;6.614;2024-01-30T07:22:57;20.85;;;11.85;;
61840;SDS011;47773;53.174;6.614;2024-01-30T07:25:23;21.67;;;11.75;;
61840;SDS011;47773;53.174;6.614;2024-01-30T07:27:52;23.25;;;12.57;;
61840;SDS011;47773;53.174;6.614;2024-01-30T07:30:18;17.63;;;11.55;;
61840;SDS011;47773;53.174;6.614;2024-01-30T07:32:44;19.27;;;11.50;;
61840;SDS011;47773;53.174;6.614;2024-01-30T07:35:10;16.83;;;11.90;;
61840;SDS011;47773;53.174;6.614;2024-01-30T07:37:36;23.40;;;12.05;;
61840;SDS011;47773;53.174;6.614;2024-01-30T07:40:02;15.88;;;11.40;;
61840;SDS011;47773;53.174;6.614;2024-01-30T07:42:28;19.55;;;11.70;;
61840;SDS011;47773;53.174;6.614;2024-01-30T07:44:54;17.65;;;11.05;;
61840;SDS011;47773;53.174;6.614;2024-01-30T07:47:20;18.63;;;11.73;;
61840;SDS011;47773;53.174;6.614;2024-01-30T07:49:46;20.35;;;11.80;;
61840;SDS011;47773;53.174;6.614;2024-01-30T07:52:12;20.85;;;12.25;;
61840;SDS011;47773;53.174;6.614;2024-01-30T07:54:50;17.13;;;11.07;;
61840;SDS011;47773;53.174;6.614;2024-01-30T07:57:16;22.38;;;12.00;;
61840;SDS011;47773;53.174;6.614;2024-01-30T07:59:43;16.70;;;10.93;;
61840;SDS011;47773;53.174;6.614;2024-01-30T08:02:09;20.65;;;12.27;;
61840;SDS011;47773;53.174;6.614;2024-01-30T08:04:36;21.58;;;12.32;;
61840;SDS011;47773;53.174;6.614;2024-01-30T08:07:02;19.15;;;12.35;;
61840;SDS011;47773;53.174;6.614;2024-01-30T08:09:28;21.45;;;11.82;;
61840;SDS011;47773;53.174;6.614;2024-01-30T08:11:53;17.65;;;11.10;;
61840;SDS011;47773;53.174;6.614;2024-01-30T08:14:19;18.77;;;11.20;;
61840;SDS011;47773;53.174;6.614;2024-01-30T08:16:45;18.08;;;11.15;;
61840;SDS011;47773;53.174;6.614;2024-01-30T08:19:10;17.45;;;11.07;;
61840;SDS011;47773;53.174;6.614;2024-01-30T08:21:36;19.77;;;11.15;;
61840;SDS011;47773;53.174;6.614;2024-01-30T08:24:03;16.73;;;11.30;;
61840;SDS011;47773;53.174;6.614;2024-01-30T08:26:29;19.63;;;10.30;;
61840;SDS011;47773;53.174;6.614;2024-01-30T08:28:55;22.77;;;11.82;;
61840;SDS011;47773;53.174;6.614;2024-01-30T08:31:21;20.48;;;11.80;;
61840;SDS011;47773;53.174;6.614;2024-01-30T08:33:47;20.75;;;11.57;;
61840;SDS011;47773;53.174;6.614;2024-01-30T08:36:12;19.50;;;11.40;;
61840;SDS011;47773;53.174;6.614;2024-01-30T08:38:38;19.27;;;11.95;;
61840;SDS011;47773;53.174;6.614;2024-01-30T08:41:04;18.83;;;11.32;;
61840;SDS011;47773;53.174;6.614;2024-01-30T08:43:30;19.42;;;11.18;;
61840;SDS011;47773;53.174;6.614;2024-01-30T08:45:58;17.98;;;10.98;;
61840;SDS011;47773;53.174;6.614;2024-01-30T08:48:25;20.42;;;11.65;;
61840;SDS011;47773;53.174;6.614;2024-01-30T08:50:50;18.63;;;10.68;;
61840;SDS011;47773;53.174;6.614;2024-01-30T08:53:16;24.77;;;10.88;;
61840;SDS011;47773;53.174;6.614;2024-01-30T08:55:42;22.42;;;11.48;;
61840;SDS011;47773;53.174;6.614;2024-01-30T08:58:07;20.13;;;10.98;;
61840;SDS011;47773;53.174;6.614;2024-01-30T09:00:33;16.52;;;11.35;;
61840;SDS011;47773;53.174;6.614;2024-01-30T09:02:59;18.35;;;11.18;;
61840;SDS011;47773;53.174;6.614;2024-01-30T09:05:24;16.08;;;9.63;;
61840;SDS011;47773;53.174;6.614;2024-01-30T09:07:50;19.90;;;11.20;;
61840;SDS011;47773;53.174;6.614;2024-01-30T09:10:15;20.10;;;10.75;;
61840;SDS011;47773;53.174;6.614;2024-01-30T09:12:41;17.13;;;10.60;;
61840;SDS011;47773;53.174;6.614;2024-01-30T09:15:07;19.15;;;10.90;;
61840;SDS011;47773;53.174;6.614;2024-01-30T09:17:33;18.35;;;11.25;;
61840;SDS011;47773;53.174;6.614;2024-01-30T09:19:58;17.77;;;11.02;;
61840;SDS011;47773;53.174;6.614;2024-01-30T09:22:24;20.58;;;11.50;;
61840;SDS011;47773;53.174;6.614;2024-01-30T09:24:50;19.17;;;10.90;;
61840;SDS011;47773;53.174;6.614;2024-01-30T09:27:16;19.13;;;11.00;;
61840;SDS011;47773;53.174;6.614;2024-01-30T09:29:42;21.13;;;10.70;;
61840;SDS011;47773;53.174;6.614;2024-01-30T09:32:07;16.90;;;10.88;;
61840;SDS011;47773;53.174;6.614;2024-01-30T09:34:34;19.00;;;11.07;;
61840;SDS011;47773;53.174;6.614;2024-01-30T09:36:59;21.88;;;10.73;;
61840;SDS011;47773;53.174;6.614;2024-01-30T09:39:25;20.42;;;10.85;;
61840;SDS011;47773;53.174;6.614;2024-01-30T09:42:02;18.10;;;11.05;;
61840;SDS011;47773;53.174;6.614;2024-01-30T09:44:34;23.90;;;11.83;;
61840;SDS011;47773;53.174;6.614;2024-01-30T09:47:01;22.25;;;11.48;;
61840;SDS011;47773;53.174;6.614;2024-01-30T09:49:33;17.35;;;11.25;;
61840;SDS011;47773;53.174;6.614;2024-01-30T09:52:01;23.75;;;11.23;;
61840;SDS011;47773;53.174;6.614;2024-01-30T09:54:30;20.25;;;11.95;;
61840;SDS011;47773;53.174;6.614;2024-01-30T09:56:56;21.95;;;11.57;;
61840;SDS011;47773;53.174;6.614;2024-01-30T09:59:23;20.02;;;11.05;;
61840;SDS011;47773;53.174;6.614;2024-01-30T10:01:49;21.73;;;11.75;;
61840;SDS011;47773;53.174;6.614;2024-01-30T10:04:16;25.25;;;11.77;;
61840;SDS011;47773;53.174;6.614;2024-01-30T10:06:42;20.90;;;11.70;;
61840;SDS011;47773;53.174;6.614;2024-01-30T10:09:08;21.15;;;11.73;;
61840;SDS011;47773;53.174;6.614;2024-01-30T10:11:34;20.85;;;12.77;;
61840;SDS011;47773;53.174;6.614;2024-01-30T10:14:01;26.70;;;12.05;;
61840;SDS011;47773;53.174;6.614;2024-01-30T10:16:26;21.02;;;11.80;;
61840;SDS011;47773;53.174;6.614;2024-01-30T10:18:52;25.05;;;11.70;;
61840;SDS011;47773;53.174;6.614;2024-01-30T10:21:18;20.75;;;11.50;;
61840;SDS011;47773;53.174;6.614;2024-01-30T10:23:43;24.13;;;11.52;;
61840;SDS011;47773;53.174;6.614;2024-01-30T10:26:12;26.05;;;12.18;;
61840;SDS011;47773;53.174;6.614;2024-01-30T10:28:38;24.45;;;11.95;;
61840;SDS011;47773;53.174;6.614;2024-01-30T10:31:03;22.00;;;12.35;;
61840;SDS011;47773;53.174;6.614;2024-01-30T10:33:29;21.27;;;11.55;;
61840;SDS011;47773;53.174;6.614;2024-01-30T10:36:02;30.27;;;12.75;;
61840;SDS011;47773;53.174;6.614;2024-01-30T10:38:29;26.65;;;11.35;;
61840;SDS011;47773;53.174;6.614;2024-01-30T10:40:56;20.08;;;12.02;;
61840;SDS011;47773;53.174;6.614;2024-01-30T10:43:22;25.45;;;11.70;;
61840;SDS011;47773;53.174;6.614;2024-01-30T10:48:22;23.50;;;12.05;;
61840;SDS011;47773;53.174;6.614;2024-01-30T10:50:54;26.70;;;12.52;;
61840;SDS011;47773;53.174;6.614;2024-01-30T10:53:22;22.40;;;11.70;;
61840;SDS011;47773;53.174;6.614;2024-01-30T10:55:48;26.48;;;13.30;;
61840;SDS011;47773;53.174;6.614;2024-01-30T10:58:16;29.23;;;13.30;;
61840;SDS011;47773;53.174;6.614;2024-01-30T11:00:43;22.27;;;12.75;;
61840;SDS011;47773;53.174;6.614;2024-01-30T11:03:10;23.95;;;12.90;;
61840;SDS011;47773;53.174;6.614;2024-01-30T11:05:40;24.38;;;12.98;;
61840;SDS011;47773;53.174;6.614;2024-01-30T11:08:15;24.17;;;13.35;;
61840;SDS011;47773;53.174;6.614;2024-01-30T11:10:49;31.88;;;12.43;;
61840;SDS011;47773;53.174;6.614;2024-01-30T11:13:15;21.98;;;11.25;;
61840;SDS011;47773;53.174;6.614;2024-01-30T11:15:41;25.25;;;12.93;;
61840;SDS011;47773;53.174;6.614;2024-01-30T11:18:06;24.02;;;13.70;;
61840;SDS011;47773;53.174;6.614;2024-01-30T11:20:32;25.17;;;13.68;;
61840;SDS011;47773;53.174;6.614;2024-01-30T11:22:58;29.75;;;14.32;;
61840;SDS011;47773;53.174;6.614;2024-01-30T11:25:27;27.23;;;13.40;;
61840;SDS011;47773;53.174;6.614;2024-01-30T11:27:53;27.70;;;14.65;;
61840;SDS011;47773;53.174;6.614;2024-01-30T11:35:24;33.03;;;14.23;;
61840;SDS011;47773;53.174;6.614;2024-01-30T11:37:50;25.73;;;11.32;;
61840;SDS011;47773;53.174;6.614;2024-01-30T11:40:16;23.67;;;11.68;;
61840;SDS011;47773;53.174;6.614;2024-01-30T11:42:42;26.52;;;11.20;;
61840;SDS011;47773;53.174;6.614;2024-01-30T11:45:08;31.58;;;11.32;;
61840;SDS011;47773;53.174;6.614;2024-01-30T11:47:37;24.75;;;9.32;;
61840;SDS011;47773;53.174;6.614;2024-01-30T11:50:04;21.63;;;8.07;;
61840;SDS011;47773;53.174;6.614;2024-01-30T11:52:32;27.73;;;8.52;;
61840;SDS011;47773;53.174;6.614;2024-01-30T11:54:58;25.10;;;7.60;;
61840;SDS011;47773;53.174;6.614;2024-01-30T11:57:26;27.30;;;7.60;;
61840;SDS011;47773;53.174;6.614;2024-01-30T11:59:52;14.98;;;5.68;;
61840;SDS011;47773;53.174;6.614;2024-01-30T12:02:17;20.30;;;5.60;;
61840;SDS011;47773;53.174;6.614;2024-01-30T12:04:43;18.42;;;5.57;;
61840;SDS011;47773;53.174;6.614;2024-01-30T12:07:09;20.83;;;4.13;;
61840;SDS011;47773;53.174;6.614;2024-01-30T12:09:36;11.30;;;3.65;;
61840;SDS011;47773;53.174;6.614;2024-01-30T12:12:01;13.30;;;3.70;;
61840;SDS011;47773;53.174;6.614;2024-01-30T12:14:27;13.18;;;3.20;;
61840;SDS011;47773;53.174;6.614;2024-01-30T12:16:53;14.73;;;3.85;;
61840;SDS011;47773;53.174;6.614;2024-01-30T12:19:24;8.55;;;3.13;;
61840;SDS011;47773;53.174;6.614;2024-01-30T12:21:56;11.07;;;2.42;;
61840;SDS011;47773;53.174;6.614;2024-01-30T12:24:24;6.28;;;2.40;;
61840;SDS011;47773;53.174;6.614;2024-01-30T12:26:58;7.32;;;2.13;;
61840;SDS011;47773;53.174;6.614;2024-01-30T12:29:24;9.55;;;2.22;;
61840;SDS011;47773;53.174;6.614;2024-01-30T12:31:52;7.85;;;1.98;;
61840;SDS011;47773;53.174;6.614;2024-01-30T12:34:18;7.72;;;1.92;;
61840;SDS011;47773;53.174;6.614;2024-01-30T12:36:46;7.43;;;1.70;;
61840;SDS011;47773;53.174;6.614;2024-01-30T12:39:14;11.30;;;1.98;;
61840;SDS011;47773;53.174;6.614;2024-01-30T12:41:40;12.25;;;1.90;;
61840;SDS011;47773;53.174;6.614;2024-01-30T12:44:06;7.93;;;1.65;;
61840;SDS011;47773;53.174;6.614;2024-01-30T12:46:33;9.80;;;1.50;;
61840;SDS011;47773;53.174;6.614;2024-01-30T12:49:00;11.80;;;1.70;;
61840;SDS011;47773;53.174;6.614;2024-01-30T12:51:25;6.53;;;1.50;;
61840;SDS011;47773;53.174;6.614;2024-01-30T12:53:51;5.22;;;1.38;;
61840;SDS011;47773;53.174;6.614;2024-01-30T12:56:17;5.28;;;1.20;;
61840;SDS011;47773;53.174;6.614;2024-01-30T12:58:42;4.72;;;1.00;;
61840;SDS011;47773;53.174;6.614;2024-01-30T13:01:08;4.97;;;0.93;;
61840;SDS011;47773;53.174;6.614;2024-01-30T13:03:35;3.88;;;0.93;;
61840;SDS011;47773;53.174;6.614;2024-01-30T13:06:00;5.45;;;1.10;;
61840;SDS011;47773;53.174;6.614;2024-01-30T13:08:26;5.85;;;0.93;;
61840;SDS011;47773;53.174;6.614;2024-01-30T13:10:52;4.97;;;1.05;;
61840;SDS011;47773;53.174;6.614;2024-01-30T13:13:17;8.30;;;1.17;;
61840;SDS011;47773;53.174;6.614;2024-01-30T13:15:43;6.68;;;1.30;;
61840;SDS011;47773;53.174;6.614;2024-01-30T13:18:09;5.00;;;1.20;;
61840;SDS011;47773;53.174;6.614;2024-01-30T13:20:35;6.45;;;1.00;;
61840;SDS011;47773;53.174;6.614;2024-01-30T13:23:01;4.50;;;1.27;;
61840;SDS011;47773;53.174;6.614;2024-01-30T13:25:26;3.47;;;1.23;;
61840;SDS011;47773;53.174;6.614;2024-01-30T13:27:52;2.53;;;0.80;;
61840;SDS011;47773;53.174;6.614;2024-01-30T13:30:18;4.70;;;1.10;;
61840;SDS011;47773;53.174;6.614;2024-01-30T13:32:44;4.25;;;1.08;;
61840;SDS011;47773;53.174;6.614;2024-01-30T13:35:10;6.82;;;1.00;;
61840;SDS011;47773;53.174;6.614;2024-01-30T13:37:35;3.65;;;1.00;;
61840;SDS011;47773;53.174;6.614;2024-01-30T13:40:02;3.03;;;0.90;;
61840;SDS011;47773;53.174;6.614;2024-01-30T13:42:32;4.85;;;0.80;;
61840;SDS011;47773;53.174;6.614;2024-01-30T13:44:57;8.55;;;1.08;;
61840;SDS011;47773;53.174;6.614;2024-01-30T13:47:23;3.20;;;0.98;;
61840;SDS011;47773;53.174;6.614;2024-01-30T13:49:49;5.47;;;0.88;;
61840;SDS011;47773;53.174;6.614;2024-01-30T13:52:14;4.68;;;0.88;;
61840;SDS011;47773;53.174;6.614;2024-01-30T13:54:40;6.15;;;1.30;;
61840;SDS011;47773;53.174;6.614;2024-01-30T13:57:06;4.03;;;0.90;;
61840;SDS011;47773;53.174;6.614;2024-01-30T13:59:33;2.55;;;0.90;;
61840;SDS011;47773;53.174;6.614;2024-01-30T14:01:59;3.65;;;0.98;;
61840;SDS011;47773;53.174;6.614;2024-01-30T14:04:24;4.22;;;0.90;;
61840;SDS011;47773;53.174;6.614;2024-01-30T14:06:50;10.50;;;0.88;;
61840;SDS011;47773;53.174;6.614;2024-01-30T14:09:16;2.97;;;0.80;;
61840;SDS011;47773;53.174;6.614;2024-01-30T14:11:41;4.05;;;0.90;;
61840;SDS011;47773;53.174;6.614;2024-01-30T14:14:07;5.85;;;1.38;;
61840;SDS011;47773;53.174;6.614;2024-01-30T14:16:33;3.42;;;0.93;;
61840;SDS011;47773;53.174;6.614;2024-01-30T14:18:59;3.67;;;1.00;;
61840;SDS011;47773;53.174;6.614;2024-01-30T14:21:25;4.28;;;1.13;;
61840;SDS011;47773;53.174;6.614;2024-01-30T14:23:50;4.28;;;1.17;;
61840;SDS011;47773;53.174;6.614;2024-01-30T14:26:16;5.72;;;1.35;;
61840;SDS011;47773;53.174;6.614;2024-01-30T14:28:42;9.13;;;1.25;;